createdAt,value
2018-04-30T00:01:53.722Z,7.30
2018-04-30T00:06:44.735Z,7.23
2018-04-30T00:11:35.765Z,7.57
2018-04-30T00:16:26.780Z,8.03
2018-04-30T00:21:17.800Z,7.80
2018-04-30T00:26:08.913Z,8.30
2018-04-30T00:31:00.675Z,7.63
2018-04-30T00:35:51.792Z,8.00
2018-04-30T00:40:42.827Z,8.23
2018-04-30T00:45:33.866Z,8.17
2018-04-30T00:50:24.878Z,8.33
2018-04-30T00:55:15.927Z,8.43
2018-04-30T01:00:06.936Z,8.30
2018-04-30T01:04:57.948Z,8.73
2018-04-30T01:09:48.968Z,10.00
2018-04-30T01:14:39.991Z,8.83
2018-04-30T01:19:31.054Z,9.57
2018-04-30T01:24:22.092Z,10.53
2018-04-30T01:29:13.885Z,10.27
2018-04-30T01:34:04.919Z,10.60
2018-04-30T01:38:55.991Z,10.90
2018-04-30T01:43:47.790Z,11.17
2018-04-30T01:48:38.820Z,11.73
2018-04-30T01:53:29.835Z,12.50
2018-04-30T01:58:20.915Z,12.00
2018-04-30T02:03:11.931Z,12.70
2018-04-30T02:08:03.683Z,12.87
2018-04-30T02:12:54.792Z,12.80
2018-04-30T02:17:46.556Z,13.67
2018-04-30T02:22:37.579Z,15.03
2018-04-30T02:27:28.585Z,14.10
2018-04-30T02:32:19.656Z,13.97
2018-04-30T02:37:10.676Z,13.77
2018-04-30T02:42:01.695Z,13.97
2018-04-30T02:46:52.724Z,13.43
2018-04-30T02:51:43.767Z,13.27
2018-04-30T02:56:34.863Z,13.63
2018-04-30T03:01:25.884Z,13.40
2018-04-30T03:06:16.908Z,13.30
2018-04-30T03:11:07.988Z,12.90
2018-04-30T03:15:59.020Z,12.67
2018-04-30T03:20:50.139Z,13.23
2018-04-30T03:25:41.186Z,12.57
2018-04-30T03:30:32.200Z,11.47
2018-04-30T03:35:23.212Z,11.40
2018-04-30T03:40:14.267Z,11.23
2018-04-30T03:45:05.291Z,11.53
2018-04-30T03:49:56.312Z,11.73
2018-04-30T03:54:47.388Z,11.07
2018-04-30T03:59:39.169Z,10.30
2018-04-30T04:04:48.901Z,10.23
2018-04-30T04:09:40.050Z,10.17
2018-04-30T04:14:31.090Z,9.83
2018-04-30T04:19:22.118Z,10.13
2018-04-30T04:24:13.148Z,10.20
2018-04-30T04:29:04.171Z,10.27
2018-04-30T04:33:55.171Z,10.20
2018-04-30T04:38:46.184Z,10.23
2018-04-30T04:43:37.228Z,10.20
2018-04-30T04:48:28.241Z,9.60
2018-04-30T04:53:19.254Z,9.10
2018-04-30T04:58:10.285Z,9.60
2018-04-30T05:03:01.316Z,9.77
2018-04-30T05:07:52.332Z,9.50
2018-04-30T05:12:43.433Z,8.67
2018-04-30T05:17:34.591Z,10.23
2018-04-30T05:22:25.604Z,9.90
2018-04-30T05:27:16.620Z,10.27
2018-04-30T05:32:07.643Z,9.63
2018-04-30T05:36:58.640Z,10.17
2018-04-30T05:41:50.440Z,10.07
2018-04-30T05:46:41.460Z,10.60
2018-04-30T05:51:32.472Z,9.80
2018-04-30T05:56:23.503Z,11.00
2018-04-30T06:01:14.600Z,10.33
2018-04-30T06:06:05.664Z,11.20
2018-04-30T06:10:56.688Z,10.43
2018-04-30T06:15:47.732Z,10.80
2018-04-30T06:20:39.598Z,10.67
2018-04-30T06:25:30.699Z,11.27
2018-04-30T06:30:22.469Z,10.07
2018-04-30T06:35:13.490Z,10.63
2018-04-30T06:40:04.518Z,11.50
2018-04-30T06:44:56.408Z,11.53
2018-04-30T06:49:47.463Z,11.77
2018-04-30T06:54:39.276Z,10.80
2018-04-30T06:59:30.309Z,11.20
2018-04-30T07:04:22.817Z,9.87
2018-04-30T07:09:13.958Z,10.33
2018-04-30T07:14:05.704Z,9.83
2018-04-30T07:18:56.738Z,10.30
2018-04-30T07:23:47.836Z,10.33
2018-04-30T07:28:38.887Z,8.83
2018-04-30T07:33:30.020Z,10.20
2018-04-30T07:38:22.579Z,10.90
2018-04-30T07:43:13.633Z,10.27
2018-04-30T07:48:05.575Z,10.80
2018-04-30T07:52:57.465Z,10.33
2018-04-30T07:57:48.568Z,11.67
2018-04-30T08:02:39.687Z,10.63
2018-04-30T08:07:31.561Z,11.07
2018-04-30T08:12:22.604Z,11.10
2018-04-30T08:17:13.696Z,12.17
2018-04-30T08:22:05.447Z,11.80
2018-04-30T08:26:57.306Z,11.90
2018-04-30T08:31:48.271Z,11.87
2018-04-30T08:36:39.348Z,12.30
2018-04-30T08:41:30.326Z,12.03
2018-04-30T08:46:22.907Z,12.73
2018-04-30T08:51:14.683Z,12.57
2018-04-30T08:56:05.702Z,13.00
2018-04-30T09:00:56.729Z,13.10
2018-04-30T09:05:47.765Z,12.70
2018-04-30T09:10:38.817Z,12.47
2018-04-30T09:15:29.843Z,12.13
2018-04-30T09:20:20.905Z,12.23
2018-04-30T09:25:11.940Z,12.47
2018-04-30T09:30:02.964Z,13.13
2018-04-30T09:34:53.985Z,11.90
2018-04-30T09:39:45.065Z,12.30
2018-04-30T09:44:36.113Z,10.93
2018-04-30T09:49:27.175Z,10.43
2018-04-30T09:54:18.347Z,9.50
2018-04-30T09:59:10.151Z,9.87
2018-04-30T10:04:01.175Z,10.90
2018-04-30T10:08:52.194Z,11.70
2018-04-30T10:13:43.323Z,11.10
2018-04-30T10:18:34.339Z,12.50
2018-04-30T10:23:25.471Z,12.73
2018-04-30T10:28:17.194Z,14.47
2018-04-30T10:33:08.229Z,13.57
2018-04-30T10:37:59.342Z,12.63
2018-04-30T10:42:50.301Z,10.33
2018-04-30T10:47:41.336Z,8.93
2018-04-30T10:52:33.136Z,7.97
2018-04-30T10:57:24.193Z,5.77
2018-04-30T11:02:15.247Z,5.40
2018-04-30T11:07:06.260Z,4.87
2018-04-30T11:11:58.029Z,4.50
2018-04-30T11:16:49.095Z,4.30
2018-04-30T11:21:40.188Z,3.53
2018-04-30T11:26:31.216Z,3.40
2018-04-30T11:31:22.270Z,3.50
2018-04-30T11:36:13.302Z,3.30
2018-04-30T11:41:05.076Z,3.03
2018-04-30T11:45:56.118Z,3.30
2018-04-30T11:50:47.169Z,3.00
2018-04-30T11:55:38.219Z,3.10
2018-04-30T12:00:30.076Z,3.07
2018-04-30T12:05:21.100Z,2.87
2018-04-30T12:10:12.259Z,2.80
2018-04-30T12:15:03.297Z,2.50
2018-04-30T12:19:54.373Z,2.50
2018-04-30T12:24:45.388Z,2.40
2018-04-30T12:29:36.463Z,2.20
2018-04-30T12:34:27.535Z,2.47
2018-04-30T12:39:18.580Z,1.70
2018-04-30T12:44:09.672Z,1.50
2018-04-30T12:49:08.441Z,1.50
2018-04-30T12:53:59.516Z,1.43
2018-04-30T12:58:50.557Z,1.50
2018-04-30T13:03:41.591Z,1.30
2018-04-30T13:08:32.653Z,1.10
2018-04-30T13:13:23.852Z,1.10
2018-04-30T13:18:14.998Z,1.40
2018-04-30T13:23:06.055Z,1.40
2018-04-30T13:27:57.107Z,1.10
2018-04-30T13:32:48.967Z,1.27
2018-04-30T13:37:40.059Z,1.70
2018-04-30T13:42:31.074Z,1.33
2018-04-30T13:47:22.140Z,1.20
2018-04-30T13:52:13.181Z,1.00
2018-04-30T13:57:04.301Z,1.40
2018-04-30T14:01:55.345Z,1.20
2018-04-30T14:06:46.385Z,1.27
2018-04-30T14:11:37.426Z,1.10
2018-04-30T14:16:28.447Z,1.20
2018-04-30T14:21:19.507Z,1.00
2018-04-30T14:26:10.572Z,0.87
2018-04-30T14:31:01.596Z,1.00
2018-04-30T14:35:52.615Z,0.90
2018-04-30T14:40:43.691Z,1.10
2018-04-30T14:45:35.494Z,1.00
2018-04-30T14:50:26.556Z,0.70
2018-04-30T14:55:18.363Z,1.03
2018-04-30T15:00:09.443Z,0.83
2018-04-30T15:05:00.476Z,0.90
2018-04-30T15:09:51.559Z,0.90
2018-04-30T15:14:43.340Z,1.00
2018-04-30T15:19:34.468Z,0.97
2018-04-30T15:24:25.470Z,0.80
2018-04-30T15:29:16.508Z,0.87
2018-04-30T15:34:07.559Z,1.00
2018-04-30T15:38:58.624Z,0.93
2018-04-30T15:43:50.426Z,0.80
2018-04-30T15:48:41.456Z,0.80
2018-04-30T15:53:32.612Z,1.00
2018-04-30T15:58:24.419Z,0.90
2018-04-30T16:03:16.144Z,1.10
2018-04-30T16:08:07.163Z,0.90
2018-04-30T16:12:58.184Z,1.10
2018-04-30T16:17:49.227Z,1.23
2018-04-30T16:22:40.372Z,1.00
2018-04-30T16:27:31.372Z,0.90
2018-04-30T16:32:22.376Z,0.90
2018-04-30T16:37:13.427Z,1.10
2018-04-30T16:42:04.446Z,1.00
2018-04-30T16:46:55.571Z,0.90
2018-04-30T16:51:46.588Z,1.13
2018-04-30T16:56:37.657Z,1.00
2018-04-30T17:01:29.414Z,1.10
2018-04-30T17:06:20.569Z,1.00
2018-04-30T17:11:11.599Z,1.10
2018-04-30T17:16:02.623Z,0.97
2018-04-30T17:20:53.656Z,0.90
2018-04-30T17:25:44.699Z,0.90
2018-04-30T17:30:36.521Z,0.90
2018-04-30T17:35:27.556Z,1.20
2018-04-30T17:40:18.587Z,0.90
2018-04-30T17:45:10.372Z,1.00
2018-04-30T17:50:01.410Z,0.90
2018-04-30T17:54:52.429Z,1.00
2018-04-30T17:59:43.460Z,1.00
2018-04-30T18:04:34.544Z,1.10
2018-04-30T18:09:25.582Z,1.10
2018-04-30T18:14:16.718Z,1.40
2018-04-30T18:19:07.747Z,1.20
2018-04-30T18:23:58.819Z,1.37
2018-04-30T18:28:50.592Z,1.50
2018-04-30T18:33:41.624Z,1.50
2018-04-30T18:38:32.660Z,2.30
2018-04-30T18:43:23.819Z,1.90
2018-04-30T18:48:14.908Z,2.57
2018-04-30T18:53:05.990Z,1.97
2018-04-30T18:57:57.032Z,2.20
2018-04-30T19:02:48.109Z,2.23
2018-04-30T19:07:39.133Z,2.20
2018-04-30T19:12:30.281Z,2.40
2018-04-30T19:17:22.070Z,2.20
2018-04-30T19:22:13.106Z,3.30
2018-04-30T19:27:04.287Z,3.20
2018-04-30T19:31:55.390Z,2.50
2018-04-30T19:36:47.261Z,3.13
2018-04-30T19:41:38.289Z,2.87
2018-04-30T19:46:29.368Z,4.97
2018-04-30T19:51:21.181Z,2.83
2018-04-30T19:56:12.267Z,2.83
2018-04-30T20:01:03.284Z,2.80
2018-04-30T20:05:54.472Z,3.00
2018-04-30T20:10:46.253Z,2.60
2018-04-30T20:15:37.288Z,2.70
2018-04-30T20:20:28.420Z,2.60
2018-04-30T20:25:19.400Z,2.60
2018-04-30T20:30:11.228Z,3.20
2018-04-30T20:35:02.245Z,3.07
2018-04-30T20:39:53.286Z,3.60
2018-04-30T20:44:45.151Z,3.17
2018-04-30T20:49:36.924Z,3.23
2018-04-30T20:54:28.027Z,3.47
2018-04-30T20:59:19.125Z,3.23
2018-04-30T21:04:10.953Z,3.73
2018-04-30T21:09:12.396Z,3.17
2018-04-30T21:14:03.433Z,3.50
2018-04-30T21:18:54.458Z,3.50
2018-04-30T21:23:45.460Z,3.27
2018-04-30T21:28:36.479Z,3.40
2018-04-30T21:33:27.499Z,3.73
2018-04-30T21:38:18.515Z,3.60
2018-04-30T21:43:09.547Z,3.00
2018-04-30T21:48:00.660Z,3.70
2018-04-30T21:52:51.738Z,4.00
2018-04-30T21:57:42.786Z,3.90
2018-04-30T22:02:33.822Z,4.03
2018-04-30T22:07:24.840Z,3.87
2018-04-30T22:12:15.868Z,3.67
2018-04-30T22:17:06.892Z,4.17
2018-04-30T22:21:57.915Z,4.30
2018-04-30T22:26:48.932Z,3.50
2018-04-30T22:31:39.976Z,3.90
2018-04-30T22:36:31.040Z,4.00
2018-04-30T22:41:22.779Z,4.23
2018-04-30T22:46:14.539Z,3.87
2018-04-30T22:51:05.576Z,4.10
2018-04-30T22:55:56.626Z,4.50
2018-04-30T23:00:47.637Z,4.07
2018-04-30T23:05:38.651Z,4.60
2018-04-30T23:10:29.676Z,4.93
2018-04-30T23:15:20.797Z,4.70
2018-04-30T23:20:11.828Z,5.10
2018-04-30T23:25:02.875Z,4.43
2018-04-30T23:29:53.957Z,4.87
2018-04-30T23:34:45.050Z,4.50
2018-04-30T23:39:36.818Z,4.53
2018-04-30T23:44:27.844Z,5.17
2018-04-30T23:49:18.879Z,4.83
2018-04-30T23:54:09.901Z,4.60
2018-04-30T23:59:00.946Z,4.90
